createdAt,value
2023-04-27T00:01:13.403Z,98451.22
2023-04-27T00:03:43.503Z,98445.19
2023-04-27T00:06:12.875Z,98446.38
2023-04-27T00:08:42.209Z,98436.69
2023-04-27T00:11:11.476Z,98451.00
2023-04-27T00:13:42.116Z,98438.28
2023-04-27T00:16:11.435Z,98441.50
2023-04-27T00:18:40.842Z,98437.47
2023-04-27T00:21:10.290Z,98442.25
2023-04-27T00:23:39.565Z,98445.06
2023-04-27T00:26:10.345Z,98433.47
2023-04-27T00:28:43.422Z,98441.06
2023-04-27T00:31:12.633Z,98439.88
2023-04-27T00:33:41.735Z,98437.47
2023-04-27T00:36:11.163Z,98444.72
2023-04-27T00:38:40.356Z,98443.94
2023-04-27T00:41:09.820Z,98435.09
2023-04-27T00:43:45.786Z,98430.69
2023-04-27T00:46:16.117Z,98430.28
2023-04-27T00:48:45.793Z,98429.88
2023-04-27T00:51:15.793Z,98432.25
2023-04-27T00:53:45.252Z,98431.88
2023-04-27T00:56:14.685Z,98429.47
2023-04-27T00:58:45.354Z,98433.47
2023-04-27T01:01:15.176Z,98428.19
2023-04-27T01:03:45.311Z,98436.94
2023-04-27T01:06:14.738Z,98435.34
2023-04-27T01:08:47.018Z,98432.53
2023-04-27T01:11:16.259Z,98438.50
2023-04-27T01:13:46.927Z,98430.09
2023-04-27T01:16:18.482Z,98434.22
2023-04-27T01:18:48.334Z,98437.38
2023-04-27T01:21:17.528Z,98435.72
2023-04-27T01:23:48.066Z,98437.22
2023-04-27T01:26:17.510Z,98437.94
2023-04-27T01:28:47.041Z,98441.50
2023-04-27T01:31:16.607Z,98443.56
2023-04-27T01:33:45.945Z,98449.53
2023-04-27T01:36:16.747Z,98446.75
2023-04-27T01:38:47.580Z,98453.06
2023-04-27T01:41:17.168Z,98453.75
2023-04-27T01:43:46.318Z,98456.16
2023-04-27T01:46:16.785Z,98449.03
2023-04-27T01:48:46.162Z,98449.06
2023-04-27T01:51:15.426Z,98452.28
2023-04-27T01:53:48.484Z,98461.06
2023-04-27T01:56:18.738Z,98459.44
2023-04-27T01:58:47.832Z,98466.59
2023-04-27T02:01:16.985Z,98462.25
2023-04-27T02:03:46.341Z,98462.59
2023-04-27T02:06:15.602Z,98460.22
2023-04-27T02:08:44.818Z,98465.78
2023-04-27T02:11:15.546Z,98469.78
2023-04-27T02:13:45.182Z,98469.69
2023-04-27T02:16:14.471Z,98462.38
2023-04-27T02:18:43.594Z,98460.28
2023-04-27T02:21:12.909Z,98458.88
2023-04-27T02:23:42.030Z,98462.72
2023-04-27T02:26:19.559Z,98465.31
2023-04-27T02:28:48.962Z,98468.84
2023-04-27T02:31:18.468Z,98468.88
2023-04-27T02:33:48.534Z,98464.06
2023-04-27T02:36:18.694Z,98456.50
2023-04-27T02:38:47.863Z,98460.53
2023-04-27T02:41:18.425Z,98461.50
2023-04-27T02:43:47.930Z,98475.03
2023-04-27T02:46:17.124Z,98467.84
2023-04-27T02:48:46.230Z,98460.72
2023-04-27T02:51:15.325Z,98461.13
2023-04-27T02:53:44.424Z,98460.09
2023-04-27T02:56:13.648Z,98464.97
2023-04-27T02:58:44.938Z,98462.94
2023-04-27T03:01:14.077Z,98458.56
2023-04-27T03:03:43.353Z,98462.53
2023-04-27T03:06:12.656Z,98467.28
2023-04-27T03:08:41.871Z,98472.72
2023-04-27T03:11:12.558Z,98469.53
2023-04-27T03:13:43.030Z,98469.66
2023-04-27T03:16:12.880Z,98468.88
2023-04-27T03:18:42.370Z,98471.91
2023-04-27T03:21:12.736Z,98476.44
2023-04-27T03:23:42.032Z,98474.75
2023-04-27T03:26:13.741Z,98465.19
2023-04-27T03:28:44.941Z,98470.44
2023-04-27T03:31:16.003Z,98467.66
2023-04-27T03:33:45.211Z,98474.84
2023-04-27T03:36:14.357Z,98482.03
2023-04-27T03:38:44.039Z,98481.22
2023-04-27T03:41:14.155Z,98469.16
2023-04-27T03:43:45.284Z,98477.88
2023-04-27T03:46:14.883Z,98473.00
2023-04-27T03:48:44.231Z,98480.22
2023-04-27T03:51:13.472Z,98473.88
2023-04-27T03:53:42.515Z,98475.50
2023-04-27T03:56:11.652Z,98480.97
2023-04-27T03:58:40.754Z,98480.88
2023-04-27T04:01:37.434Z,98483.78
2023-04-27T04:04:06.869Z,98489.78
2023-04-27T04:06:36.445Z,98484.28
2023-04-27T04:09:13.268Z,98500.47
2023-04-27T04:11:55.852Z,98500.53
2023-04-27T04:15:06.436Z,98489.59
2023-04-27T04:17:37.183Z,98492.69
2023-04-27T04:20:11.003Z,98483.16
2023-04-27T04:22:51.315Z,98484.75
2023-04-27T04:26:14.581Z,98491.94
2023-04-27T04:28:52.725Z,98488.81
2023-04-27T04:31:22.196Z,98492.69
2023-04-27T04:33:53.184Z,98494.38
2023-04-27T04:36:24.069Z,98494.56
2023-04-27T04:38:57.237Z,98493.06
2023-04-27T04:41:27.491Z,98500.31
2023-04-27T04:43:56.547Z,98507.63
2023-04-27T04:46:25.870Z,98501.38
2023-04-27T04:48:56.269Z,98503.41
2023-04-27T04:51:25.312Z,98500.63
2023-04-27T04:53:54.556Z,98504.59
2023-04-27T04:56:25.771Z,98506.34
2023-04-27T04:58:57.750Z,98514.28
2023-04-27T05:01:27.343Z,98510.41
2023-04-27T05:03:57.997Z,98517.59
2023-04-27T05:06:27.718Z,98508.03
2023-04-27T05:08:56.997Z,98517.75
2023-04-27T05:11:26.070Z,98509.38
2023-04-27T05:13:55.124Z,98523.47
2023-04-27T05:16:26.444Z,98532.31
2023-04-27T05:18:57.095Z,98531.97
2023-04-27T05:21:26.131Z,98528.41
2023-04-27T05:23:55.128Z,98537.28
2023-04-27T05:26:24.198Z,98529.44
2023-04-27T05:28:53.272Z,98531.06
2023-04-27T05:31:22.468Z,98531.88
2023-04-27T05:33:52.018Z,98537.56
2023-04-27T05:36:22.487Z,98541.63
2023-04-27T05:38:51.640Z,98546.78
2023-04-27T05:41:20.708Z,98547.19
2023-04-27T05:43:49.724Z,98541.72
2023-04-27T05:46:18.759Z,98551.25
2023-04-27T05:48:47.895Z,98551.34
2023-04-27T05:51:16.906Z,98545.38
2023-04-27T05:53:47.395Z,98546.63
2023-04-27T05:56:16.476Z,98558.66
2023-04-27T05:58:45.511Z,98560.69
2023-04-27T06:01:14.594Z,98560.75
2023-04-27T06:03:43.735Z,98562.38
2023-04-27T06:06:12.958Z,98558.00
2023-04-27T06:08:42.048Z,98554.84
2023-04-27T06:11:12.499Z,98553.22
2023-04-27T06:13:41.512Z,98559.69
2023-04-27T06:16:10.558Z,98563.69
2023-04-27T06:18:39.588Z,98563.72
2023-04-27T06:21:08.598Z,98569.34
2023-04-27T06:23:37.656Z,98571.75
2023-04-27T06:26:06.861Z,98575.75
2023-04-27T06:28:37.322Z,98566.84
2023-04-27T06:31:07.174Z,98569.25
2023-04-27T06:33:36.604Z,98567.59
2023-04-27T06:36:05.915Z,98573.53
2023-04-27T06:38:34.984Z,98573.41
2023-04-27T06:41:04.364Z,98576.91
2023-04-27T06:43:33.432Z,98574.38
2023-04-27T06:46:03.960Z,98576.75
2023-04-27T06:48:33.014Z,98580.59
2023-04-27T06:51:02.049Z,98586.25
2023-04-27T06:53:32.634Z,98584.16
2023-04-27T06:56:01.832Z,98590.78
2023-04-27T06:58:30.944Z,98587.34
2023-04-27T07:01:00.017Z,98585.41
2023-04-27T07:03:31.555Z,98583.56
2023-04-27T07:06:00.822Z,98591.06
2023-04-27T07:08:30.021Z,98588.59
2023-04-27T07:10:59.437Z,98595.28
2023-04-27T07:13:28.438Z,98591.31
2023-04-27T07:15:58.826Z,98598.09
2023-04-27T07:18:28.536Z,98598.63
2023-04-27T07:20:58.970Z,98606.25
2023-04-27T07:23:28.143Z,98601.69
2023-04-27T07:25:57.804Z,98596.47
2023-04-27T07:28:26.990Z,98606.47
2023-04-27T07:30:56.043Z,98597.31
2023-04-27T07:33:25.317Z,98598.53
2023-04-27T07:35:54.693Z,98598.41
2023-04-27T07:38:25.539Z,98598.00
2023-04-27T07:40:54.741Z,98596.13
2023-04-27T07:43:25.787Z,98579.28
2023-04-27T07:45:55.658Z,98594.00
2023-04-27T07:48:24.982Z,98586.38
2023-04-27T07:50:54.388Z,98584.94
2023-04-27T07:53:24.872Z,98593.53
2023-04-27T07:55:53.963Z,98586.81
2023-04-27T07:58:23.089Z,98594.69
2023-04-27T08:00:52.124Z,98588.41
2023-04-27T08:03:23.004Z,98588.94
2023-04-27T08:05:52.544Z,98591.75
2023-04-27T08:08:22.827Z,98596.38
2023-04-27T08:10:53.735Z,98597.47
2023-04-27T08:13:24.865Z,98600.28
2023-04-27T08:15:58.439Z,98592.94
2023-04-27T08:18:27.823Z,98588.66
2023-04-27T08:20:57.071Z,98584.72
2023-04-27T08:23:29.191Z,98586.81
2023-04-27T08:25:59.639Z,98588.16
2023-04-27T08:28:28.692Z,98579.94
2023-04-27T08:30:58.052Z,98578.09
2023-04-27T08:33:27.166Z,98584.09
2023-04-27T08:35:56.219Z,98580.16
2023-04-27T08:38:25.709Z,98578.97
2023-04-27T08:40:54.819Z,98575.44
2023-04-27T08:43:25.369Z,98575.13
2023-04-27T08:45:54.434Z,98581.75
2023-04-27T08:48:23.582Z,98579.00
2023-04-27T08:50:53.952Z,98586.00
2023-04-27T08:53:23.587Z,98569.53
2023-04-27T08:55:52.595Z,98570.94
2023-04-27T08:58:21.793Z,98572.50
2023-04-27T09:00:52.669Z,98571.69
2023-04-27T09:03:24.667Z,98575.09
2023-04-27T09:06:04.749Z,98579.16
2023-04-27T09:08:46.407Z,98578.72
2023-04-27T09:11:16.481Z,98573.97
2023-04-27T09:13:46.292Z,98569.03
2023-04-27T09:16:17.113Z,98568.16
2023-04-27T09:18:46.286Z,98567.22
2023-04-27T09:21:24.321Z,98576.59
2023-04-27T09:23:53.875Z,98568.72
2023-04-27T09:26:25.329Z,98568.13
2023-04-27T09:28:57.528Z,98570.91
2023-04-27T09:31:35.150Z,98569.44
2023-04-27T09:34:05.087Z,98561.63
2023-04-27T09:36:34.224Z,98564.72
2023-04-27T09:39:06.090Z,98555.56
2023-04-27T09:41:35.358Z,98550.88
2023-04-27T09:44:05.469Z,98553.16
2023-04-27T09:46:36.914Z,98555.25
2023-04-27T09:49:06.381Z,98551.84
2023-04-27T09:51:35.971Z,98543.72
2023-04-27T09:54:05.924Z,98545.28
2023-04-27T09:56:47.632Z,98542.25
2023-04-27T09:59:37.670Z,98536.22
2023-04-27T10:02:24.099Z,98539.66
2023-04-27T10:05:31.580Z,98531.44
2023-04-27T10:08:01.487Z,98526.19
2023-04-27T10:10:32.348Z,98524.75
2023-04-27T10:13:03.756Z,98527.06
2023-04-27T10:15:32.819Z,98526.63
2023-04-27T10:18:07.513Z,98516.59
2023-04-27T10:20:38.681Z,98509.78
2023-04-27T10:23:07.912Z,98508.06
2023-04-27T10:25:41.378Z,98506.78
2023-04-27T10:28:18.527Z,98500.75
2023-04-27T10:30:49.284Z,98500.59
2023-04-27T10:33:22.971Z,98499.53
2023-04-27T10:36:00.448Z,98499.13
2023-04-27T10:38:30.917Z,98499.34
2023-04-27T10:41:02.362Z,98499.19
2023-04-27T10:43:33.403Z,98491.28
2023-04-27T10:46:10.472Z,98489.69
2023-04-27T10:48:42.385Z,98487.56
2023-04-27T10:51:16.557Z,98476.66
2023-04-27T10:53:45.856Z,98478.19
2023-04-27T10:56:15.308Z,98481.03
2023-04-27T10:58:48.725Z,98485.13
2023-04-27T11:01:26.020Z,98474.75
2023-04-27T11:04:00.337Z,98483.09
2023-04-27T11:06:32.209Z,98473.06
2023-04-27T11:09:02.760Z,98474.19
2023-04-27T11:11:31.965Z,98487.56
2023-04-27T11:14:02.616Z,98478.19
2023-04-27T11:16:33.031Z,98477.88
2023-04-27T11:19:07.854Z,98482.59
2023-04-27T11:21:37.178Z,98480.31
2023-04-27T11:24:07.844Z,98480.28
2023-04-27T11:26:37.057Z,98475.31
2023-04-27T11:29:10.457Z,98473.44
2023-04-27T11:31:47.569Z,98475.59
2023-04-27T11:34:19.750Z,98471.78
2023-04-27T11:37:14.284Z,98469.00
2023-04-27T11:39:47.113Z,98464.38
2023-04-27T11:42:18.624Z,98478.47
2023-04-27T11:44:55.362Z,98476.31
2023-04-27T11:47:25.478Z,98469.25
2023-04-27T11:49:57.721Z,98472.69
2023-04-27T11:52:30.473Z,98463.22
2023-04-27T11:55:02.263Z,98473.22
2023-04-27T11:57:33.425Z,98468.06
2023-04-27T12:00:10.913Z,98461.22
2023-04-27T12:02:44.133Z,98457.22
2023-04-27T12:05:15.612Z,98455.59
2023-04-27T12:07:44.782Z,98438.03
2023-04-27T12:10:14.127Z,98446.53
2023-04-27T12:12:43.595Z,98450.25
2023-04-27T12:15:13.220Z,98446.31
2023-04-27T12:17:42.350Z,98445.34
2023-04-27T12:20:15.341Z,98450.16
2023-04-27T12:22:44.439Z,98447.47
2023-04-27T12:25:13.455Z,98451.22
2023-04-27T12:27:42.980Z,98448.41
2023-04-27T12:30:13.570Z,98455.31
2023-04-27T12:32:43.346Z,98445.31
2023-04-27T12:35:13.169Z,98436.31
2023-04-27T12:37:44.070Z,98436.78
2023-04-27T12:40:14.306Z,98439.56
2023-04-27T12:42:43.688Z,98434.44
2023-04-27T12:45:18.637Z,98435.13
2023-04-27T12:48:01.675Z,98432.34
2023-04-27T12:50:35.726Z,98428.06
2023-04-27T12:53:06.267Z,98432.19
2023-04-27T12:55:43.091Z,98431.41
2023-04-27T12:58:12.368Z,98425.41
2023-04-27T13:00:44.491Z,98432.50
2023-04-27T13:03:14.046Z,98428.47
2023-04-27T13:05:45.736Z,98427.00
2023-04-27T13:08:16.543Z,98427.41
2023-04-27T13:10:47.551Z,98430.47
2023-04-27T13:13:16.722Z,98433.63
2023-04-27T13:15:47.515Z,98440.44
2023-04-27T13:18:20.398Z,98433.28
2023-04-27T13:20:50.227Z,98436.59
2023-04-27T13:23:20.703Z,98430.88
2023-04-27T13:25:49.871Z,98438.63
2023-04-27T13:28:18.955Z,98435.31
2023-04-27T13:30:48.960Z,98428.97
2023-04-27T13:33:23.045Z,98431.50
2023-04-27T13:35:53.289Z,98428.06
2023-04-27T13:38:23.762Z,98428.84
2023-04-27T13:40:52.935Z,98435.91
2023-04-27T13:43:21.972Z,98435.41
2023-04-27T13:45:52.643Z,98425.41
2023-04-27T13:48:21.734Z,98429.19
2023-04-27T13:50:51.152Z,98425.69
2023-04-27T13:53:20.579Z,98429.53
2023-04-27T13:55:50.968Z,98441.69
2023-04-27T13:58:20.034Z,98438.38
2023-04-27T14:00:49.308Z,98432.63
2023-04-27T14:03:18.746Z,98427.38
2023-04-27T14:05:48.963Z,98427.59
2023-04-27T14:08:18.673Z,98430.66
2023-04-27T14:10:47.987Z,98429.41
2023-04-27T14:13:19.891Z,98432.50
2023-04-27T14:15:48.966Z,98420.69
2023-04-27T14:18:18.100Z,98431.09
2023-04-27T14:20:47.224Z,98427.09
2023-04-27T14:23:16.413Z,98420.66
2023-04-27T14:25:45.403Z,98420.00
2023-04-27T14:28:14.871Z,98424.25
2023-04-27T14:30:45.685Z,98421.91
2023-04-27T14:33:14.811Z,98435.22
2023-04-27T14:35:43.888Z,98436.56
2023-04-27T14:38:13.298Z,98442.25
2023-04-27T14:40:42.380Z,98446.06
2023-04-27T14:43:11.453Z,98457.84
2023-04-27T14:45:50.818Z,98455.31
2023-04-27T14:48:24.715Z,98447.56
2023-04-27T14:50:57.815Z,98447.22
2023-04-27T14:53:27.082Z,98448.56
2023-04-27T14:55:56.327Z,98445.50
2023-04-27T14:58:25.774Z,98429.16
2023-04-27T15:00:55.052Z,98440.06
2023-04-27T15:03:25.956Z,98435.53
2023-04-27T15:05:55.862Z,98438.84
2023-04-27T15:08:25.434Z,98433.00
2023-04-27T15:10:57.737Z,98423.75
2023-04-27T15:13:27.106Z,98419.72
2023-04-27T15:15:57.030Z,98419.50
2023-04-27T15:18:27.727Z,98423.63
2023-04-27T15:20:57.831Z,98418.06
2023-04-27T15:23:28.489Z,98419.34
2023-04-27T15:25:59.326Z,98429.19
2023-04-27T15:28:28.711Z,98420.31
2023-04-27T15:30:57.798Z,98430.19
2023-04-27T15:33:28.709Z,98429.47
2023-04-27T15:35:59.036Z,98429.56
2023-04-27T15:38:28.078Z,98427.44
2023-04-27T15:40:57.083Z,98421.88
2023-04-27T15:43:26.567Z,98426.34
2023-04-27T15:45:55.935Z,98425.72
2023-04-27T15:48:25.998Z,98424.13
2023-04-27T15:50:56.957Z,98423.03
2023-04-27T15:53:26.356Z,98417.09
2023-04-27T15:55:55.556Z,98415.63
2023-04-27T15:58:24.615Z,98420.81
2023-04-27T16:00:53.674Z,98409.69
2023-04-27T16:03:23.372Z,98412.13
2023-04-27T16:05:52.539Z,98412.63
2023-04-27T16:08:23.478Z,98418.59
2023-04-27T16:10:52.702Z,98410.66
2023-04-27T16:13:21.763Z,98407.13
2023-04-27T16:15:51.037Z,98407.13
2023-04-27T16:18:20.047Z,98412.47
2023-04-27T16:20:49.097Z,98419.06
2023-04-27T16:23:18.234Z,98406.56
2023-04-27T16:25:48.595Z,98410.34
2023-04-27T16:28:18.257Z,98405.44
2023-04-27T16:30:47.427Z,98413.31
2023-04-27T16:33:18.487Z,98409.63
2023-04-27T16:35:47.537Z,98414.72
2023-04-27T16:38:16.621Z,98405.72
2023-04-27T16:40:45.680Z,98410.34
2023-04-27T16:43:16.095Z,98422.69
2023-04-27T16:45:45.211Z,98425.19
2023-04-27T16:48:14.297Z,98423.09
2023-04-27T16:50:43.616Z,98423.72
2023-04-27T16:53:15.027Z,98436.38
2023-04-27T16:55:44.116Z,98436.91
2023-04-27T16:58:13.148Z,98436.22
2023-04-27T17:00:43.572Z,98434.25
2023-04-27T17:03:12.683Z,98437.53
2023-04-27T17:05:41.876Z,98448.28
2023-04-27T17:08:11.020Z,98442.41
2023-04-27T17:10:40.759Z,98444.00
2023-04-27T17:13:11.094Z,98448.34
2023-04-27T17:15:40.142Z,98444.53
2023-04-27T17:18:10.919Z,98446.84
2023-04-27T17:20:42.155Z,98447.47
2023-04-27T17:23:11.396Z,98456.91
2023-04-27T17:25:41.543Z,98451.47
2023-04-27T17:28:11.519Z,98454.03
2023-04-27T17:30:42.126Z,98450.44
2023-04-27T17:33:14.798Z,98451.59
2023-04-27T17:35:44.957Z,98449.72
2023-04-27T17:38:14.320Z,98455.63
2023-04-27T17:40:44.139Z,98457.00
2023-04-27T17:43:14.312Z,98462.78
2023-04-27T17:45:43.904Z,98462.75
2023-04-27T17:48:14.401Z,98465.59
2023-04-27T17:50:43.518Z,98465.69
2023-04-27T17:53:12.928Z,98455.19
2023-04-27T17:55:42.888Z,98463.41
2023-04-27T17:58:11.982Z,98466.75
2023-04-27T18:00:42.822Z,98476.09
2023-04-27T18:03:14.204Z,98477.19
2023-04-27T18:05:43.567Z,98481.34
2023-04-27T18:08:12.653Z,98476.63
2023-04-27T18:10:41.667Z,98479.97
2023-04-27T18:13:10.861Z,98476.41
2023-04-27T18:15:39.944Z,98486.06
2023-04-27T18:18:09.004Z,98490.16
2023-04-27T18:20:45.142Z,98493.03
2023-04-27T18:23:14.452Z,98497.06
2023-04-27T18:25:44.082Z,98489.84
2023-04-27T18:28:13.555Z,98494.44
2023-04-27T18:30:43.021Z,98493.34
2023-04-27T18:33:12.958Z,98498.31
2023-04-27T18:35:44.138Z,98499.59
2023-04-27T18:38:13.287Z,98507.75
2023-04-27T18:40:42.463Z,98507.56
2023-04-27T18:43:12.148Z,98506.91
2023-04-27T18:45:42.104Z,98518.63
2023-04-27T18:48:11.209Z,98519.06
2023-04-27T18:50:40.327Z,98514.28
2023-04-27T18:53:10.799Z,98515.94
2023-04-27T18:55:40.766Z,98516.44
2023-04-27T18:58:10.329Z,98523.88
2023-04-27T19:00:39.962Z,98518.28
2023-04-27T19:03:10.064Z,98522.75
2023-04-27T19:05:43.192Z,98534.78
2023-04-27T19:08:13.978Z,98536.72
2023-04-27T19:10:43.215Z,98532.19
2023-04-27T19:13:12.517Z,98539.38
2023-04-27T19:15:42.049Z,98546.53
2023-04-27T19:18:11.981Z,98540.00
2023-04-27T19:20:41.449Z,98550.91
2023-04-27T19:23:13.701Z,98546.53
2023-04-27T19:25:43.668Z,98553.81
2023-04-27T19:28:12.929Z,98546.53
2023-04-27T19:30:42.332Z,98549.72
2023-04-27T19:33:11.495Z,98555.00
2023-04-27T19:35:40.745Z,98559.47
2023-04-27T19:38:10.030Z,98550.25
2023-04-27T19:40:40.506Z,98566.41
2023-04-27T19:43:10.443Z,98554.03
2023-04-27T19:45:41.849Z,98556.50
2023-04-27T19:48:11.331Z,98558.53
2023-04-27T19:50:42.963Z,98558.63
2023-04-27T19:53:12.264Z,98563.94
2023-04-27T19:55:42.759Z,98568.84
2023-04-27T19:58:12.125Z,98563.25
2023-04-27T20:00:41.439Z,98568.06
2023-04-27T20:03:13.249Z,98568.06
2023-04-27T20:05:43.151Z,98561.69
2023-04-27T20:08:12.554Z,98556.88
2023-04-27T20:10:43.524Z,98561.59
2023-04-27T20:13:12.851Z,98568.78
2023-04-27T20:15:43.385Z,98560.38
2023-04-27T20:18:13.300Z,98554.75
2023-04-27T20:20:43.345Z,98563.97
2023-04-27T20:23:12.662Z,98569.25
2023-04-27T20:25:43.058Z,98570.50
2023-04-27T20:28:12.347Z,98574.47
2023-04-27T20:30:41.650Z,98572.69
2023-04-27T20:33:12.715Z,98581.72
2023-04-27T20:35:42.642Z,98577.38
2023-04-27T20:38:12.438Z,98578.63
2023-04-27T20:40:43.767Z,98583.41
2023-04-27T20:43:13.572Z,98586.59
2023-04-27T20:45:43.127Z,98595.75
2023-04-27T20:48:13.377Z,98603.34
2023-04-27T20:50:42.583Z,98597.72
2023-04-27T20:53:11.708Z,98603.00
2023-04-27T20:55:42.889Z,98601.75
2023-04-27T20:58:11.944Z,98601.03
2023-04-27T21:00:41.109Z,98595.47
2023-04-27T21:03:10.253Z,98598.31
2023-04-27T21:05:40.992Z,98600.31
2023-04-27T21:08:10.245Z,98596.66
2023-04-27T21:10:39.368Z,98599.50
2023-04-27T21:13:10.035Z,98599.09
2023-04-27T21:15:42.476Z,98601.50
2023-04-27T21:18:22.483Z,98610.72
2023-04-27T21:20:58.712Z,98612.78
2023-04-27T21:23:27.737Z,98614.34
2023-04-27T21:25:56.961Z,98613.94
2023-04-27T21:28:27.671Z,98610.34
2023-04-27T21:30:56.737Z,98606.72
2023-04-27T21:33:25.931Z,98596.66
2023-04-27T21:35:55.010Z,98611.03
2023-04-27T21:38:24.095Z,98617.06
2023-04-27T21:40:53.123Z,98618.75
2023-04-27T21:43:22.200Z,98625.16
2023-04-27T21:45:52.705Z,98626.78
2023-04-27T21:48:21.898Z,98619.59
2023-04-27T21:50:51.354Z,98627.66
2023-04-27T21:53:20.368Z,98616.34
2023-04-27T21:55:49.486Z,98624.44
2023-04-27T21:58:18.661Z,98629.63
2023-04-27T22:00:48.733Z,98630.88
2023-04-27T22:03:19.669Z,98630.00
2023-04-27T22:05:50.352Z,98642.84
2023-04-27T22:08:19.524Z,98626.41
2023-04-27T22:10:48.542Z,98627.59
2023-04-27T22:13:19.392Z,98629.66
2023-04-27T22:15:49.452Z,98622.84
2023-04-27T22:18:19.978Z,98636.50
2023-04-27T22:20:49.442Z,98637.31
2023-04-27T22:23:20.321Z,98634.09
2023-04-27T22:25:49.338Z,98635.28
2023-04-27T22:28:18.424Z,98626.09
2023-04-27T22:30:47.554Z,98624.53
2023-04-27T22:33:16.744Z,98634.16
2023-04-27T22:35:47.891Z,98626.56
2023-04-27T22:38:17.136Z,98626.16
2023-04-27T22:40:46.183Z,98617.31
2023-04-27T22:43:15.321Z,98625.31
2023-04-27T22:45:44.353Z,98623.69
2023-04-27T22:48:14.021Z,98618.91
2023-04-27T22:50:43.061Z,98610.84
2023-04-27T22:53:13.496Z,98607.22
2023-04-27T22:55:42.656Z,98601.19
2023-04-27T22:58:11.710Z,98602.81
2023-04-27T23:00:40.745Z,98601.25
2023-04-27T23:03:11.282Z,98620.56
2023-04-27T23:05:40.447Z,98621.38
2023-04-27T23:08:09.518Z,98617.38
2023-04-27T23:10:39.999Z,98622.56
2023-04-27T23:13:11.407Z,98614.13
2023-04-27T23:15:40.873Z,98617.25
2023-04-27T23:18:09.945Z,98621.25
2023-04-27T23:20:39.042Z,98616.47
2023-04-27T23:23:08.124Z,98621.72
2023-04-27T23:25:37.171Z,98615.72
2023-04-27T23:28:07.628Z,98613.72
2023-04-27T23:30:36.753Z,98610.53
2023-04-27T23:33:06.075Z,98601.28
2023-04-27T23:35:35.300Z,98602.88
2023-04-27T23:38:04.336Z,98610.09
2023-04-27T23:40:33.375Z,98610.09
2023-04-27T23:43:02.384Z,98599.66
2023-04-27T23:45:32.918Z,98602.88
2023-04-27T23:48:02.077Z,98596.84
2023-04-27T23:50:31.202Z,98605.28
2023-04-27T23:53:00.596Z,98600.50
2023-04-27T23:55:29.596Z,98592.09
2023-04-27T23:57:58.611Z,98585.69
